createdAt,value
2023-01-06T00:02:46.991Z,7.48
2023-01-06T00:07:52.788Z,7.59
2023-01-06T00:12:55.497Z,7.28
2023-01-06T00:17:57.106Z,7.29
2023-01-06T00:22:58.730Z,7.27
2023-01-06T00:28:00.331Z,7.51
2023-01-06T00:33:01.921Z,7.63
2023-01-06T00:38:03.952Z,7.51
2023-01-06T00:43:05.719Z,7.60
2023-01-06T00:48:07.802Z,7.52
2023-01-06T00:53:09.431Z,7.58
2023-01-06T00:58:11.048Z,7.54
2023-01-06T01:03:13.963Z,7.34
2023-01-06T01:08:15.851Z,7.20
2023-01-06T01:13:17.466Z,7.17
2023-01-06T01:18:19.131Z,7.13
2023-01-06T01:23:20.737Z,7.07
2023-01-06T01:28:22.431Z,6.61
2023-01-06T01:33:24.070Z,6.46
2023-01-06T01:38:26.649Z,6.63
2023-01-06T01:43:50.061Z,6.44
2023-01-06T01:48:53.128Z,6.23
2023-01-06T01:53:58.898Z,6.19
2023-01-06T01:59:09.409Z,6.35
2023-01-06T02:04:11.348Z,6.45
2023-01-06T02:09:20.941Z,6.58
2023-01-06T02:14:24.656Z,6.49
2023-01-06T02:20:03.944Z,6.56
2023-01-06T02:25:12.311Z,6.75
2023-01-06T02:30:51.149Z,6.80
2023-01-06T02:36:40.789Z,6.58
2023-01-06T02:41:53.623Z,6.55
2023-01-06T02:47:01.235Z,6.51
2023-01-06T02:52:25.524Z,6.68
2023-01-06T02:57:38.985Z,6.73
2023-01-06T03:02:45.632Z,6.84
2023-01-06T03:07:48.357Z,6.92
2023-01-06T03:13:01.938Z,6.88
2023-01-06T03:18:05.251Z,6.91
2023-01-06T03:23:07.143Z,7.10
2023-01-06T03:28:09.070Z,6.94
2023-01-06T03:33:34.335Z,6.80
2023-01-06T03:38:50.507Z,6.71
2023-01-06T03:44:02.904Z,6.98
2023-01-06T03:49:09.514Z,7.15
2023-01-06T03:54:26.900Z,6.96
2023-01-06T03:59:34.916Z,7.05
2023-01-06T04:04:38.120Z,7.12
2023-01-06T04:09:39.820Z,7.10
2023-01-06T04:14:42.855Z,7.10
2023-01-06T04:19:44.538Z,7.12
2023-01-06T04:24:46.453Z,7.10
2023-01-06T04:29:48.420Z,7.24
2023-01-06T04:34:50.284Z,7.24
2023-01-06T04:39:52.803Z,7.25
2023-01-06T04:44:54.411Z,7.19
2023-01-06T04:49:56.005Z,7.06
2023-01-06T04:54:57.617Z,7.30
2023-01-06T04:59:59.217Z,7.25
2023-01-06T05:05:00.831Z,7.19
2023-01-06T05:10:02.807Z,7.37
2023-01-06T05:15:05.326Z,7.38
2023-01-06T05:20:07.743Z,7.44
2023-01-06T05:25:09.450Z,7.59
2023-01-06T05:30:12.041Z,7.31
2023-01-06T05:35:13.710Z,7.33
2023-01-06T05:40:15.320Z,7.56
2023-01-06T05:45:17.110Z,7.43
2023-01-06T05:50:19.269Z,7.57
2023-01-06T05:55:20.866Z,7.68
2023-01-06T06:00:22.598Z,7.54
2023-01-06T06:05:24.248Z,7.74
2023-01-06T06:10:25.878Z,7.68
2023-01-06T06:15:27.533Z,7.75
2023-01-06T06:20:29.262Z,7.76
2023-01-06T06:25:31.108Z,7.87
2023-01-06T06:30:32.719Z,7.62
2023-01-06T06:35:34.314Z,7.69
2023-01-06T06:40:35.919Z,7.83
2023-01-06T06:45:37.546Z,7.75
2023-01-06T06:50:39.592Z,7.67
2023-01-06T06:55:41.223Z,7.84
2023-01-06T07:00:42.864Z,7.87
2023-01-06T07:05:46.255Z,7.83
2023-01-06T07:10:47.931Z,7.79
2023-01-06T07:15:49.683Z,7.72
2023-01-06T07:20:53.735Z,7.84
2023-01-06T07:25:57.512Z,8.32
2023-01-06T07:30:59.586Z,8.28
2023-01-06T07:36:01.210Z,8.48
2023-01-06T07:41:02.843Z,8.63
2023-01-06T07:46:04.700Z,8.71
2023-01-06T07:51:07.132Z,9.06
2023-01-06T07:56:09.080Z,9.30
2023-01-06T08:01:11.750Z,9.33
2023-01-06T08:06:13.598Z,9.34
2023-01-06T08:11:15.265Z,9.34
2023-01-06T08:16:16.939Z,9.45
2023-01-06T08:21:18.587Z,9.52
2023-01-06T08:26:20.271Z,9.64
2023-01-06T08:31:23.285Z,9.69
2023-01-06T08:36:25.712Z,9.75
2023-01-06T08:41:27.391Z,9.92
2023-01-06T08:46:29.135Z,10.06
2023-01-06T08:51:31.405Z,10.23
2023-01-06T08:56:33.976Z,10.23
2023-01-06T09:01:37.247Z,10.24
2023-01-06T09:06:39.948Z,10.34
2023-01-06T09:11:43.353Z,10.53
2023-01-06T09:16:45.063Z,10.78
2023-01-06T09:21:46.688Z,10.76
2023-01-06T09:26:48.370Z,10.66
2023-01-06T09:31:50.051Z,10.75
2023-01-06T09:36:51.703Z,10.67
2023-01-06T09:42:30.562Z,10.68
2023-01-06T09:47:55.966Z,11.08
2023-01-06T09:53:24.121Z,11.46
2023-01-06T09:58:34.513Z,11.49
2023-01-06T10:03:36.358Z,11.45
2023-01-06T10:09:05.827Z,11.62
2023-01-06T10:14:25.860Z,11.73
2023-01-06T10:19:44.971Z,11.94
2023-01-06T10:24:59.095Z,12.09
2023-01-06T10:30:03.276Z,11.94
2023-01-06T10:35:12.931Z,12.04
2023-01-06T10:40:30.455Z,11.94
2023-01-06T10:45:48.097Z,12.11
2023-01-06T10:50:49.755Z,12.11
2023-01-06T10:55:56.882Z,12.18
2023-01-06T11:01:01.810Z,12.07
2023-01-06T11:06:08.898Z,12.03
2023-01-06T11:11:34.190Z,12.12
2023-01-06T11:16:36.941Z,11.97
2023-01-06T11:21:44.439Z,12.04
2023-01-06T11:26:58.909Z,12.04
2023-01-06T11:32:22.102Z,11.96
2023-01-06T11:37:36.030Z,11.85
2023-01-06T11:42:39.469Z,12.00
2023-01-06T11:47:41.108Z,11.99
2023-01-06T11:52:42.873Z,12.07
2023-01-06T11:57:55.164Z,12.04
2023-01-06T12:03:12.231Z,11.99
2023-01-06T12:08:40.830Z,11.93
2023-01-06T12:13:45.042Z,11.84
2023-01-06T12:18:58.015Z,11.82
2023-01-06T12:24:04.249Z,11.86
2023-01-06T12:29:07.554Z,11.81
2023-01-06T12:34:29.471Z,11.62
2023-01-06T12:39:42.873Z,11.44
2023-01-06T12:44:59.641Z,11.10
2023-01-06T12:50:08.268Z,10.92
2023-01-06T12:55:15.764Z,10.86
2023-01-06T13:00:28.554Z,10.83
2023-01-06T13:05:48.062Z,10.94
2023-01-06T13:10:55.038Z,11.04
2023-01-06T13:16:02.769Z,11.20
2023-01-06T13:21:18.303Z,11.28
2023-01-06T13:26:38.579Z,11.22
2023-01-06T13:32:00.151Z,11.31
2023-01-06T13:37:36.939Z,11.14
2023-01-06T13:42:44.021Z,11.12
2023-01-06T13:47:47.180Z,11.61
2023-01-06T13:52:50.064Z,11.88
2023-01-06T13:57:51.935Z,11.73
2023-01-06T14:02:53.519Z,11.41
2023-01-06T14:07:59.776Z,11.26
2023-01-06T14:13:04.037Z,11.13
2023-01-06T14:18:05.757Z,11.05
2023-01-06T14:23:22.652Z,11.03
2023-01-06T14:28:31.194Z,11.08
2023-01-06T14:33:37.872Z,11.13
2023-01-06T14:38:48.629Z,11.11
2023-01-06T14:44:02.976Z,11.06
2023-01-06T14:49:07.282Z,11.06
2023-01-06T14:54:33.540Z,11.16
2023-01-06T14:59:35.210Z,11.08
2023-01-06T15:04:36.866Z,11.16
2023-01-06T15:09:38.495Z,11.11
2023-01-06T15:14:40.092Z,11.19
2023-01-06T15:19:43.969Z,11.12
2023-01-06T15:24:46.242Z,11.00
2023-01-06T15:29:56.543Z,11.12
2023-01-06T15:34:59.542Z,11.13
2023-01-06T15:40:02.036Z,11.04
2023-01-06T15:45:06.183Z,11.18
2023-01-06T15:50:18.522Z,11.17
2023-01-06T15:55:25.124Z,11.18
2023-01-06T16:00:31.258Z,11.19
2023-01-06T16:05:43.233Z,11.13
2023-01-06T16:10:46.168Z,11.03
2023-01-06T16:15:49.554Z,10.89
2023-01-06T16:20:51.227Z,11.00
2023-01-06T16:26:05.986Z,10.96
2023-01-06T16:31:13.531Z,10.99
2023-01-06T16:36:17.056Z,10.85
2023-01-06T16:41:19.484Z,10.94
2023-01-06T16:46:27.016Z,10.92
2023-01-06T16:51:29.189Z,10.88
2023-01-06T16:56:30.844Z,10.74
2023-01-06T17:01:32.602Z,10.80
2023-01-06T17:06:34.271Z,10.76
2023-01-06T17:11:38.214Z,10.64
2023-01-06T17:16:41.510Z,10.59
2023-01-06T17:21:43.121Z,10.57
2023-01-06T17:26:51.469Z,10.45
2023-01-06T17:31:57.112Z,10.36
2023-01-06T17:37:02.965Z,10.36
2023-01-06T17:42:07.313Z,10.28
2023-01-06T17:47:22.871Z,10.19
2023-01-06T17:52:35.583Z,10.08
2023-01-06T17:57:40.494Z,9.94
2023-01-06T18:02:46.739Z,9.87
2023-01-06T18:07:48.332Z,9.86
2023-01-06T18:12:49.986Z,9.93
2023-01-06T18:17:51.671Z,9.94
2023-01-06T18:22:53.294Z,9.96
2023-01-06T18:27:54.939Z,9.92
2023-01-06T18:32:56.613Z,9.98
2023-01-06T18:38:03.296Z,10.06
2023-01-06T18:43:38.149Z,10.02
2023-01-06T18:48:39.817Z,9.92
2023-01-06T18:53:43.621Z,9.97
2023-01-06T18:58:49.027Z,9.82
2023-01-06T19:04:14.527Z,9.82
2023-01-06T19:09:36.044Z,9.73
2023-01-06T19:14:43.996Z,9.84
2023-01-06T19:19:45.799Z,9.99
2023-01-06T19:25:00.655Z,10.06
2023-01-06T19:30:42.941Z,9.99
2023-01-06T19:35:45.214Z,9.91
2023-01-06T19:40:46.875Z,9.75
2023-01-06T19:45:48.759Z,9.73
2023-01-06T19:51:00.821Z,9.69
2023-01-06T19:56:16.498Z,9.61
2023-01-06T20:01:18.292Z,9.63
2023-01-06T20:06:20.544Z,9.57
2023-01-06T20:11:23.414Z,9.39
2023-01-06T20:16:25.090Z,9.32
2023-01-06T20:21:26.697Z,9.23
2023-01-06T20:26:28.293Z,9.18
2023-01-06T20:31:30.385Z,9.17
2023-01-06T20:36:32.152Z,9.26
2023-01-06T20:41:33.759Z,9.25
2023-01-06T20:46:35.360Z,9.15
2023-01-06T20:51:37.009Z,9.08
2023-01-06T20:56:38.752Z,9.11
2023-01-06T21:01:40.457Z,9.07
2023-01-06T21:06:42.137Z,9.13
2023-01-06T21:11:43.751Z,9.16
2023-01-06T21:16:46.484Z,9.09
2023-01-06T21:21:48.545Z,9.06
2023-01-06T21:26:50.131Z,9.02
2023-01-06T21:31:51.783Z,9.05
2023-01-06T21:36:53.402Z,8.98
2023-01-06T21:42:13.741Z,9.19
2023-01-06T21:47:15.589Z,9.22
2023-01-06T21:52:17.714Z,9.16
2023-01-06T21:57:19.362Z,9.21
2023-01-06T22:02:21.292Z,9.33
2023-01-06T22:07:23.488Z,9.25
2023-01-06T22:12:25.142Z,9.31
2023-01-06T22:17:26.981Z,9.32
2023-01-06T22:22:30.324Z,9.23
2023-01-06T22:27:31.947Z,9.18
2023-01-06T22:32:45.073Z,9.18
2023-01-06T22:37:46.730Z,9.18
2023-01-06T22:42:48.374Z,9.22
2023-01-06T22:47:49.999Z,9.20
2023-01-06T22:52:51.665Z,9.31
2023-01-06T22:57:53.296Z,9.21
2023-01-06T23:02:55.013Z,9.29
2023-01-06T23:07:56.639Z,9.13
2023-01-06T23:12:58.278Z,9.19
2023-01-06T23:17:59.908Z,9.11
2023-01-06T23:23:01.508Z,9.17
2023-01-06T23:28:03.166Z,9.07
2023-01-06T23:33:04.761Z,9.02
2023-01-06T23:38:06.365Z,9.11
2023-01-06T23:43:07.994Z,9.06
2023-01-06T23:48:09.638Z,8.97
2023-01-06T23:53:11.243Z,9.09
2023-01-06T23:58:12.957Z,9.01
